createdAt,value
2023-04-17T00:02:04.788Z,12.69
2023-04-17T00:04:52.800Z,12.67
2023-04-17T00:07:41.561Z,12.77
2023-04-17T00:10:29.221Z,12.72
2023-04-17T00:13:16.957Z,12.78
2023-04-17T00:16:04.767Z,12.87
2023-04-17T00:18:52.684Z,12.33
2023-04-17T00:21:40.329Z,12.83
2023-04-17T00:24:28.092Z,12.82
2023-04-17T00:27:18.291Z,12.97
2023-04-17T00:30:07.309Z,12.73
2023-04-17T00:32:55.100Z,12.87
2023-04-17T00:35:42.878Z,12.58
2023-04-17T00:38:30.674Z,12.68
2023-04-17T00:41:18.421Z,12.78
2023-04-17T00:44:06.144Z,12.53
2023-04-17T00:46:57.230Z,12.68
2023-04-17T00:49:45.481Z,12.67
2023-04-17T00:52:33.677Z,12.54
2023-04-17T00:55:22.189Z,12.61
2023-04-17T00:58:10.044Z,12.69
2023-04-17T01:00:58.126Z,12.89
2023-04-17T01:03:46.034Z,12.82
2023-04-17T01:06:33.973Z,12.92
2023-04-17T01:09:21.936Z,12.89
2023-04-17T01:12:20.284Z,12.80
2023-04-17T01:15:11.614Z,12.88
2023-04-17T01:17:59.717Z,12.83
2023-04-17T01:20:51.944Z,12.64
2023-04-17T01:23:52.322Z,12.85
2023-04-17T01:26:41.788Z,12.66
2023-04-17T01:29:31.810Z,12.80
2023-04-17T01:32:19.906Z,12.68
2023-04-17T01:35:08.187Z,12.65
2023-04-17T01:37:56.341Z,12.65
2023-04-17T01:40:43.923Z,12.60
2023-04-17T01:43:31.826Z,12.09
2023-04-17T01:46:19.606Z,12.18
2023-04-17T01:49:07.412Z,12.37
2023-04-17T01:51:55.426Z,12.20
2023-04-17T01:54:45.835Z,12.36
2023-04-17T01:57:33.808Z,12.27
2023-04-17T02:00:21.831Z,12.32
2023-04-17T02:03:09.672Z,12.27
2023-04-17T02:05:57.768Z,12.22
2023-04-17T02:08:45.552Z,11.80
2023-04-17T02:11:33.337Z,11.95
2023-04-17T02:14:21.289Z,12.06
2023-04-17T02:17:09.079Z,11.93
2023-04-17T02:19:56.940Z,11.98
2023-04-17T02:22:44.652Z,11.97
2023-04-17T02:25:33.320Z,12.09
2023-04-17T02:28:21.008Z,12.00
2023-04-17T02:31:09.690Z,12.09
2023-04-17T02:33:57.386Z,11.97
2023-04-17T02:36:45.595Z,11.98
2023-04-17T02:39:34.123Z,11.93
2023-04-17T02:42:21.851Z,11.69
2023-04-17T02:45:10.678Z,11.84
2023-04-17T02:47:58.546Z,11.71
2023-04-17T02:50:46.317Z,11.83
2023-04-17T02:54:12.781Z,11.90
2023-04-17T02:57:02.058Z,11.77
2023-04-17T02:59:52.651Z,11.91
2023-04-17T03:02:42.565Z,11.57
2023-04-17T03:05:30.812Z,11.43
2023-04-17T03:08:20.937Z,11.59
2023-04-17T03:11:10.638Z,11.47
2023-04-17T03:13:58.586Z,11.64
2023-04-17T03:17:28.026Z,11.33
2023-04-17T03:20:36.405Z,10.97
2023-04-17T03:23:24.386Z,11.18
2023-04-17T03:26:12.133Z,11.22
2023-04-17T03:29:00.441Z,11.45
2023-04-17T03:31:48.214Z,11.09
2023-04-17T03:34:38.555Z,11.20
2023-04-17T03:37:26.322Z,11.08
2023-04-17T03:40:14.130Z,11.28
2023-04-17T03:43:04.633Z,11.10
2023-04-17T03:45:53.435Z,10.93
2023-04-17T03:48:42.270Z,11.29
2023-04-17T03:51:29.979Z,11.25
2023-04-17T03:54:22.581Z,11.21
2023-04-17T03:57:12.520Z,11.18
2023-04-17T04:00:00.353Z,11.17
2023-04-17T04:02:55.382Z,11.18
2023-04-17T04:05:51.736Z,11.16
2023-04-17T04:08:40.573Z,11.06
2023-04-17T04:11:28.420Z,10.98
2023-04-17T04:14:16.113Z,11.27
2023-04-17T04:17:06.508Z,11.04
2023-04-17T04:19:55.106Z,11.14
2023-04-17T04:22:45.586Z,11.17
2023-04-17T04:25:34.378Z,11.04
2023-04-17T04:28:44.971Z,10.83
2023-04-17T04:31:51.141Z,10.60
2023-04-17T04:34:44.804Z,11.03
2023-04-17T04:37:32.652Z,11.20
2023-04-17T04:40:24.917Z,10.94
2023-04-17T04:43:12.581Z,11.06
2023-04-17T04:46:03.788Z,11.12
2023-04-17T04:48:55.611Z,11.16
2023-04-17T04:51:45.095Z,11.11
2023-04-17T04:54:34.175Z,10.95
2023-04-17T04:57:22.885Z,11.34
2023-04-17T05:00:15.109Z,11.32
2023-04-17T05:03:05.310Z,11.33
2023-04-17T05:05:53.672Z,11.16
2023-04-17T05:08:45.445Z,11.49
2023-04-17T05:11:35.568Z,11.60
2023-04-17T05:14:23.395Z,11.50
2023-04-17T05:17:11.233Z,11.47
2023-04-17T05:19:59.740Z,11.69
2023-04-17T05:22:49.912Z,11.71
2023-04-17T05:25:40.798Z,11.51
2023-04-17T05:28:29.920Z,11.28
2023-04-17T05:31:24.880Z,11.62
2023-04-17T05:34:13.405Z,11.57
2023-04-17T05:37:07.632Z,11.70
2023-04-17T05:39:55.412Z,11.45
2023-04-17T05:42:43.583Z,11.83
2023-04-17T05:45:32.413Z,11.92
2023-04-17T05:48:22.946Z,12.01
2023-04-17T05:51:12.552Z,12.05
2023-04-17T05:54:00.230Z,12.17
2023-04-17T05:56:53.960Z,12.30
2023-04-17T05:59:42.076Z,12.18
2023-04-17T06:02:31.555Z,12.29
2023-04-17T06:05:19.764Z,12.30
2023-04-17T06:08:09.099Z,12.17
2023-04-17T06:10:57.136Z,12.24
2023-04-17T06:13:47.732Z,12.23
2023-04-17T06:16:40.774Z,11.98
2023-04-17T06:19:29.881Z,12.04
2023-04-17T06:22:17.927Z,12.06
2023-04-17T06:25:06.914Z,11.78
2023-04-17T06:27:55.494Z,11.92
2023-04-17T06:30:43.799Z,11.81
2023-04-17T06:33:32.873Z,11.67
2023-04-17T06:36:23.476Z,11.92
2023-04-17T06:39:15.746Z,11.82
2023-04-17T06:42:06.812Z,11.54
2023-04-17T06:44:59.211Z,12.23
2023-04-17T06:47:48.367Z,12.30
2023-04-17T06:50:39.136Z,12.33
2023-04-17T06:53:56.276Z,12.29
2023-04-17T06:56:44.651Z,12.45
2023-04-17T06:59:33.520Z,12.38
2023-04-17T07:02:22.001Z,12.30
2023-04-17T07:05:10.125Z,12.25
2023-04-17T07:07:58.030Z,12.27
2023-04-17T07:10:45.759Z,12.16
2023-04-17T07:13:36.088Z,12.46
2023-04-17T07:16:23.938Z,12.38
2023-04-17T07:19:13.378Z,12.33
2023-04-17T07:22:13.618Z,12.57
2023-04-17T07:25:01.510Z,12.43
2023-04-17T07:27:52.049Z,12.20
2023-04-17T07:30:39.879Z,12.02
2023-04-17T07:33:30.712Z,12.18
2023-04-17T07:36:18.650Z,12.37
2023-04-17T07:39:08.217Z,12.53
2023-04-17T07:41:56.510Z,12.50
2023-04-17T07:44:44.496Z,12.47
2023-04-17T07:47:32.322Z,12.60
2023-04-17T07:50:20.654Z,12.35
2023-04-17T07:53:08.418Z,12.29
2023-04-17T07:55:58.892Z,12.52
2023-04-17T07:58:46.642Z,12.48
2023-04-17T08:01:34.351Z,12.49
2023-04-17T08:04:22.369Z,12.40
2023-04-17T08:07:11.988Z,12.45
2023-04-17T08:09:59.858Z,12.75
2023-04-17T08:12:51.516Z,12.58
2023-04-17T08:15:42.145Z,12.76
2023-04-17T08:18:29.908Z,12.72
2023-04-17T08:21:17.600Z,12.57
2023-04-17T08:24:05.551Z,12.93
2023-04-17T08:26:53.277Z,13.15
2023-04-17T08:29:41.330Z,13.14
2023-04-17T08:32:29.137Z,12.73
2023-04-17T08:35:17.817Z,12.60
2023-04-17T08:38:08.525Z,12.89
2023-04-17T08:41:02.916Z,12.81
2023-04-17T08:43:51.291Z,13.23
2023-04-17T08:46:41.005Z,12.98
2023-04-17T08:49:29.789Z,13.22
2023-04-17T08:52:17.576Z,13.25
2023-04-17T08:55:06.558Z,13.59
2023-04-17T08:58:06.408Z,13.48
2023-04-17T09:00:56.958Z,13.38
2023-04-17T09:03:47.338Z,13.48
2023-04-17T09:06:54.692Z,13.60
2023-04-17T09:09:56.925Z,13.48
2023-04-17T09:13:01.408Z,13.78
2023-04-17T09:16:08.514Z,13.81
2023-04-17T09:19:09.923Z,13.93
2023-04-17T09:21:57.860Z,13.86
2023-04-17T09:24:45.760Z,13.77
2023-04-17T09:27:33.642Z,13.89
2023-04-17T09:30:21.678Z,14.01
2023-04-17T09:33:11.079Z,13.86
2023-04-17T09:36:24.095Z,14.11
2023-04-17T09:39:19.382Z,14.11
2023-04-17T09:42:07.371Z,14.00
2023-04-17T09:44:55.483Z,14.08
2023-04-17T09:47:45.872Z,13.75
2023-04-17T09:50:35.953Z,14.33
2023-04-17T09:53:25.203Z,14.50
2023-04-17T09:56:13.940Z,14.33
2023-04-17T09:59:08.858Z,14.51
2023-04-17T10:01:57.373Z,14.51
2023-04-17T10:04:47.127Z,14.52
2023-04-17T10:07:37.211Z,14.84
2023-04-17T10:10:33.969Z,14.91
2023-04-17T10:13:30.010Z,15.14
2023-04-17T10:16:18.925Z,15.30
2023-04-17T10:19:32.314Z,15.50
2023-04-17T10:22:20.349Z,15.30
2023-04-17T10:25:18.746Z,14.95
2023-04-17T10:28:48.653Z,14.95
2023-04-17T10:32:14.531Z,14.82
2023-04-17T10:35:23.387Z,15.00
2023-04-17T10:38:11.785Z,15.25
2023-04-17T10:41:03.055Z,15.31
2023-04-17T10:43:50.751Z,15.10
2023-04-17T10:46:47.957Z,15.43
2023-04-17T10:49:59.518Z,15.68
2023-04-17T10:52:47.516Z,15.46
2023-04-17T10:55:50.644Z,15.68
2023-04-17T10:58:40.839Z,15.64
2023-04-17T11:01:38.011Z,15.53
2023-04-17T11:04:31.926Z,15.32
2023-04-17T11:07:20.474Z,15.17
2023-04-17T11:10:09.852Z,15.07
2023-04-17T11:12:57.563Z,15.14
2023-04-17T11:15:45.318Z,14.91
2023-04-17T11:18:33.170Z,14.79
2023-04-17T11:21:21.191Z,15.07
2023-04-17T11:24:08.987Z,14.80
2023-04-17T11:27:00.042Z,14.65
2023-04-17T11:29:47.747Z,14.90
2023-04-17T11:32:38.375Z,14.70
2023-04-17T11:35:49.515Z,15.03
2023-04-17T11:38:37.241Z,14.90
2023-04-17T11:41:38.102Z,14.92
2023-04-17T11:44:26.526Z,15.17
2023-04-17T11:47:14.437Z,15.30
2023-04-17T11:50:02.139Z,15.13
2023-04-17T11:52:49.929Z,14.93
2023-04-17T11:55:42.003Z,14.89
2023-04-17T11:58:30.435Z,14.94
2023-04-17T12:01:20.068Z,14.81
2023-04-17T12:04:21.997Z,14.42
2023-04-17T12:07:24.130Z,14.59
2023-04-17T12:10:11.879Z,14.50
2023-04-17T12:13:00.189Z,14.46
2023-04-17T12:15:50.602Z,14.26
2023-04-17T12:18:38.355Z,14.13
2023-04-17T12:21:26.307Z,14.29
2023-04-17T12:24:18.436Z,14.19
2023-04-17T12:27:06.175Z,14.03
2023-04-17T12:29:53.935Z,13.77
2023-04-17T12:32:43.205Z,14.13
2023-04-17T12:35:31.030Z,13.86
2023-04-17T12:38:19.591Z,14.14
2023-04-17T12:41:07.409Z,13.81
2023-04-17T12:44:01.990Z,14.26
2023-04-17T12:46:51.708Z,13.75
2023-04-17T12:49:39.432Z,13.82
2023-04-17T12:52:27.276Z,13.67
2023-04-17T12:55:15.010Z,13.78
2023-04-17T12:58:02.838Z,13.97
2023-04-17T13:00:56.717Z,14.13
2023-04-17T13:03:47.264Z,14.09
2023-04-17T13:06:35.316Z,14.07
2023-04-17T13:09:23.052Z,14.16
2023-04-17T13:12:13.820Z,13.80
2023-04-17T13:15:01.855Z,13.91
2023-04-17T13:17:52.697Z,13.87
2023-04-17T13:20:40.811Z,13.81
2023-04-17T13:23:28.728Z,14.01
2023-04-17T13:26:16.504Z,13.48
2023-04-17T13:29:04.284Z,13.73
2023-04-17T13:31:52.249Z,13.82
2023-04-17T13:34:40.058Z,13.99
2023-04-17T13:37:27.811Z,13.84
2023-04-17T13:40:17.350Z,13.76
2023-04-17T13:43:06.428Z,13.69
2023-04-17T13:45:56.531Z,13.58
2023-04-17T13:48:44.350Z,13.97
2023-04-17T13:51:35.065Z,13.86
2023-04-17T13:54:28.752Z,13.71
2023-04-17T13:57:18.803Z,13.42
2023-04-17T14:00:07.705Z,13.75
2023-04-17T14:02:55.885Z,13.85
2023-04-17T14:05:46.357Z,13.85
2023-04-17T14:08:33.978Z,13.78
2023-04-17T14:11:22.724Z,13.70
2023-04-17T14:14:12.975Z,13.50
2023-04-17T14:17:01.081Z,13.76
2023-04-17T14:19:48.987Z,13.53
2023-04-17T14:22:37.033Z,13.61
2023-04-17T14:25:43.430Z,13.32
2023-04-17T14:28:31.156Z,13.75
2023-04-17T14:31:18.805Z,13.80
2023-04-17T14:34:06.737Z,13.39
2023-04-17T14:36:56.257Z,13.15
2023-04-17T14:39:45.810Z,13.32
2023-04-17T14:42:40.731Z,13.25
2023-04-17T14:45:38.834Z,13.35
2023-04-17T14:48:26.701Z,13.39
2023-04-17T14:51:15.392Z,13.04
2023-04-17T14:54:21.950Z,13.29
2023-04-17T14:57:09.721Z,13.28
2023-04-17T15:00:00.213Z,13.31
2023-04-17T15:02:51.941Z,13.20
2023-04-17T15:05:40.038Z,13.25
2023-04-17T15:08:28.596Z,13.10
2023-04-17T15:11:16.602Z,13.25
2023-04-17T15:14:04.395Z,13.45
2023-04-17T15:16:59.290Z,13.27
2023-04-17T15:19:47.187Z,13.10
2023-04-17T15:22:35.630Z,13.00
2023-04-17T15:25:26.661Z,13.00
2023-04-17T15:28:14.322Z,12.64
2023-04-17T15:31:02.553Z,12.91
2023-04-17T15:33:50.231Z,12.52
2023-04-17T15:36:39.101Z,12.67
2023-04-17T15:39:26.804Z,12.60
2023-04-17T15:42:14.679Z,12.48
2023-04-17T15:45:02.590Z,12.66
2023-04-17T15:47:50.434Z,12.32
2023-04-17T15:50:38.217Z,12.45
2023-04-17T15:53:26.407Z,12.50
2023-04-17T15:56:14.166Z,12.27
2023-04-17T15:59:01.967Z,12.24
2023-04-17T16:01:49.824Z,12.19
2023-04-17T16:04:39.252Z,12.34
2023-04-17T16:07:27.399Z,12.48
2023-04-17T16:10:15.600Z,12.47
2023-04-17T16:13:37.370Z,12.35
2023-04-17T16:16:25.103Z,12.30
2023-04-17T16:19:13.223Z,12.14
2023-04-17T16:22:01.757Z,12.21
2023-04-17T16:24:49.541Z,12.02
2023-04-17T16:27:37.272Z,12.24
2023-04-17T16:30:24.902Z,12.26
2023-04-17T16:33:12.750Z,12.27
2023-04-17T16:36:00.519Z,12.04
2023-04-17T16:38:48.505Z,11.60
2023-04-17T16:41:36.582Z,11.74
2023-04-17T16:44:30.494Z,11.88
2023-04-17T16:47:18.444Z,11.59
2023-04-17T16:50:08.362Z,11.52
2023-04-17T16:52:56.942Z,11.65
2023-04-17T16:55:44.950Z,11.50
2023-04-17T16:58:32.563Z,11.60
2023-04-17T17:01:20.251Z,11.51
2023-04-17T17:04:08.172Z,11.61
2023-04-17T17:06:55.807Z,11.61
2023-04-17T17:09:43.588Z,11.58
2023-04-17T17:12:31.607Z,11.57
2023-04-17T17:15:22.133Z,11.54
2023-04-17T17:18:10.252Z,11.52
2023-04-17T17:21:00.404Z,11.27
2023-04-17T17:23:49.305Z,11.45
2023-04-17T17:26:37.396Z,11.38
2023-04-17T17:29:25.120Z,11.42
2023-04-17T17:32:14.288Z,11.22
2023-04-17T17:35:02.303Z,11.49
2023-04-17T17:37:49.923Z,11.35
2023-04-17T17:40:37.762Z,11.37
2023-04-17T17:43:25.817Z,11.45
2023-04-17T17:46:13.642Z,11.51
2023-04-17T17:49:01.365Z,11.39
2023-04-17T17:51:49.121Z,11.40
2023-04-17T17:54:38.083Z,11.41
2023-04-17T17:57:29.196Z,11.41
2023-04-17T18:00:23.526Z,11.37
2023-04-17T18:03:11.686Z,11.31
2023-04-17T18:05:59.472Z,11.32
2023-04-17T18:08:47.342Z,11.14
2023-04-17T18:11:34.994Z,11.06
2023-04-17T18:14:26.997Z,11.22
2023-04-17T18:17:15.143Z,10.80
2023-04-17T18:20:03.013Z,11.26
2023-04-17T18:22:51.815Z,11.09
2023-04-17T18:25:39.944Z,11.19
2023-04-17T19:44:36.297Z,10.51
2023-04-17T19:47:26.879Z,10.34
2023-04-17T19:50:14.644Z,10.49
2023-04-17T19:53:02.335Z,10.48
2023-04-17T19:55:52.497Z,10.28
2023-04-17T19:58:41.330Z,10.42
2023-04-17T20:01:30.884Z,10.45
2023-04-17T20:04:18.856Z,10.49
2023-04-17T20:07:06.721Z,10.42
2023-04-17T20:09:54.391Z,10.40
2023-04-17T20:12:42.190Z,10.21
2023-04-17T20:15:30.044Z,10.43
2023-04-17T20:18:18.193Z,10.40
2023-04-17T20:21:06.639Z,10.49
2023-04-17T20:23:55.583Z,10.27
2023-04-17T20:26:47.224Z,10.15
2023-04-17T20:29:34.967Z,10.36
2023-04-17T20:32:23.406Z,10.27
2023-04-17T20:35:11.415Z,10.27
2023-04-17T20:37:59.146Z,10.30
2023-04-17T20:40:46.913Z,10.16
2023-04-17T20:43:34.619Z,10.12
2023-04-17T20:46:23.438Z,10.11
2023-04-17T20:49:11.582Z,10.31
2023-04-17T20:51:59.499Z,10.23
2023-04-17T20:54:47.308Z,10.12
2023-04-17T20:57:35.144Z,10.16
2023-04-17T21:00:22.966Z,10.20
2023-04-17T21:03:10.814Z,10.30
2023-04-17T21:05:58.683Z,10.20
2023-04-17T21:08:46.380Z,10.09
2023-04-17T21:11:34.098Z,10.06
2023-04-17T21:14:21.871Z,10.21
2023-04-17T21:17:09.638Z,9.93
2023-04-17T21:19:57.370Z,10.09
2023-04-17T21:22:45.020Z,10.18
2023-04-17T21:25:32.840Z,10.22
2023-04-17T21:28:23.379Z,10.10
2023-04-17T21:31:14.623Z,10.03
2023-04-17T21:34:02.341Z,9.98
2023-04-17T21:36:50.280Z,10.00
2023-04-17T21:39:38.069Z,9.95
2023-04-17T21:42:26.208Z,10.03
2023-04-17T21:45:14.840Z,10.00
2023-04-17T21:48:03.616Z,9.93
2023-04-17T21:50:51.592Z,9.96
2023-04-17T21:53:39.417Z,9.80
2023-04-17T21:56:27.180Z,9.71
2023-04-17T21:59:15.136Z,9.61
2023-04-17T22:02:04.306Z,9.94
2023-04-17T22:04:52.646Z,9.81
2023-04-17T22:07:51.684Z,9.77
2023-04-17T22:10:42.389Z,9.88
2023-04-17T22:13:30.822Z,9.88
2023-04-17T22:16:20.918Z,9.81
2023-04-17T22:19:09.397Z,9.88
2023-04-17T22:21:57.134Z,9.86
2023-04-17T22:24:44.834Z,9.61
2023-04-17T22:27:32.606Z,9.78
2023-04-17T22:30:20.414Z,9.71
2023-04-17T22:33:08.070Z,9.59
2023-04-17T22:35:55.817Z,9.71
2023-04-17T22:38:43.513Z,9.23
2023-04-17T22:41:31.207Z,9.48
2023-04-17T22:44:18.937Z,9.65
2023-04-17T22:47:06.731Z,9.57
2023-04-17T22:49:55.393Z,9.72
2023-04-17T22:52:43.069Z,9.57
2023-04-17T22:55:32.954Z,9.57
2023-04-17T22:58:20.729Z,9.61
2023-04-17T23:01:08.511Z,9.60
2023-04-17T23:03:56.226Z,9.37
2023-04-17T23:06:46.916Z,9.41
2023-04-17T23:09:36.955Z,9.35
2023-04-17T23:12:24.679Z,9.43
2023-04-17T23:15:12.485Z,9.40
2023-04-17T23:18:00.183Z,9.27
2023-04-17T23:20:48.076Z,9.25
2023-04-17T23:23:38.612Z,9.19
2023-04-17T23:26:28.754Z,9.22
2023-04-17T23:29:20.481Z,9.02
2023-04-17T23:32:09.179Z,9.25
2023-04-17T23:34:56.923Z,9.11
2023-04-17T23:37:44.737Z,9.04
2023-04-17T23:40:35.066Z,9.00
2023-04-17T23:43:25.473Z,9.10
2023-04-17T23:46:13.243Z,9.05
2023-04-17T23:49:01.142Z,9.06
2023-04-17T23:51:48.858Z,9.01
2023-04-17T23:54:36.552Z,9.06
2023-04-17T23:57:24.829Z,9.05
